createdAt,value
2017-07-12T00:00:07.455Z,18.58
2017-07-12T00:00:35.490Z,18.57
2017-07-12T00:01:03.829Z,18.57
2017-07-12T00:01:31.874Z,18.53
2017-07-12T00:01:59.922Z,18.6
2017-07-12T00:02:27.871Z,18.53
2017-07-12T00:02:55.804Z,18.57
2017-07-12T00:03:23.933Z,18.51
2017-07-12T00:03:52.053Z,18.53
2017-07-12T00:04:20.181Z,18.49
2017-07-12T00:04:48.301Z,18.52
2017-07-12T00:05:16.326Z,18.46
2017-07-12T00:05:44.364Z,18.46
2017-07-12T00:06:12.375Z,18.51
2017-07-12T00:06:40.480Z,18.52
2017-07-12T00:07:08.508Z,18.52
2017-07-12T00:07:36.511Z,18.49
2017-07-12T00:08:04.521Z,18.52
2017-07-12T00:08:32.449Z,18.57
2017-07-12T00:09:00.478Z,18.55
2017-07-12T00:09:28.390Z,18.6
2017-07-12T00:09:56.522Z,18.53
2017-07-12T00:10:24.523Z,18.53
2017-07-12T00:10:52.574Z,18.52
2017-07-12T00:11:20.589Z,18.53
2017-07-12T00:11:48.735Z,18.6
2017-07-12T00:12:16.865Z,18.55
2017-07-12T00:12:44.801Z,18.6
2017-07-12T00:13:12.820Z,18.58
2017-07-12T00:13:40.816Z,18.57
2017-07-12T00:14:08.927Z,18.57
2017-07-12T00:14:37.063Z,18.6
2017-07-12T00:15:04.891Z,18.61
2017-07-12T00:15:32.924Z,18.64
2017-07-12T00:16:00.942Z,18.7
2017-07-12T00:16:28.766Z,18.67
2017-07-12T00:16:56.795Z,18.67
2017-07-12T00:17:24.929Z,18.7
2017-07-12T00:17:53.030Z,18.73
2017-07-12T00:18:20.855Z,18.71
2017-07-12T00:18:48.909Z,18.7
2017-07-12T00:19:17.045Z,18.73
2017-07-12T00:19:45.164Z,18.85
2017-07-12T00:20:13.079Z,18.82
2017-07-12T00:20:41.089Z,18.74
2017-07-12T00:21:09.460Z,18.83
2017-07-12T00:21:37.299Z,18.78
2017-07-12T00:22:05.137Z,18.86
2017-07-12T00:22:32.944Z,18.88
2017-07-12T00:23:00.772Z,18.83
2017-07-12T00:23:28.691Z,18.88
2017-07-12T00:23:56.592Z,18.86
2017-07-12T00:24:24.515Z,18.86
2017-07-12T00:24:52.450Z,18.78
2017-07-12T00:25:20.593Z,18.83
2017-07-12T00:25:48.632Z,18.85
2017-07-12T00:26:16.642Z,18.82
2017-07-12T00:26:44.564Z,18.94
2017-07-12T00:27:12.582Z,18.82
2017-07-12T00:27:40.500Z,18.86
2017-07-12T00:28:08.596Z,18.81
2017-07-12T00:28:36.548Z,18.83
2017-07-12T00:29:04.560Z,18.85
2017-07-12T00:29:32.405Z,18.88
2017-07-12T00:30:00.436Z,18.82
2017-07-12T00:30:28.448Z,18.83
2017-07-12T00:30:56.569Z,18.83
2017-07-12T00:31:24.739Z,18.76
2017-07-12T00:31:52.880Z,18.73
2017-07-12T00:32:21.006Z,18.81
2017-07-12T00:32:49.127Z,18.85
2017-07-12T00:33:17.188Z,18.79
2017-07-12T00:33:45.319Z,18.83
2017-07-12T00:34:13.266Z,18.73
2017-07-12T00:34:41.207Z,18.71
2017-07-12T00:35:09.231Z,18.81
2017-07-12T00:35:37.365Z,18.68
2017-07-12T00:36:05.660Z,18.68
2017-07-12T00:36:33.668Z,18.79
2017-07-12T00:37:01.579Z,18.73
2017-07-12T00:37:29.714Z,18.73
2017-07-12T00:37:57.817Z,18.74
2017-07-12T00:38:25.930Z,18.64
2017-07-12T00:38:54.063Z,18.71
2017-07-12T00:39:22.218Z,18.7
2017-07-12T00:39:50.252Z,18.68
2017-07-12T00:40:18.392Z,18.81
2017-07-12T00:40:46.415Z,18.68
2017-07-12T00:41:14.457Z,18.78
2017-07-12T00:41:42.468Z,18.74
2017-07-12T00:42:10.400Z,18.71
2017-07-12T00:42:38.581Z,18.71
2017-07-12T00:43:06.622Z,18.76
2017-07-12T00:43:34.639Z,18.74
2017-07-12T00:44:02.567Z,18.74
2017-07-12T00:44:30.709Z,18.67
2017-07-12T00:44:58.826Z,18.66
2017-07-12T00:45:26.948Z,18.7
2017-07-12T00:45:54.975Z,18.66
2017-07-12T00:46:22.999Z,18.67
2017-07-12T00:46:50.967Z,18.67
2017-07-12T00:47:19.097Z,18.68
2017-07-12T00:47:47.233Z,18.66
2017-07-12T00:48:15.264Z,18.66
2017-07-12T00:48:43.311Z,18.64
2017-07-12T00:49:11.209Z,18.67
2017-07-12T00:49:39.016Z,18.67
2017-07-12T00:50:07.043Z,18.64
2017-07-12T00:50:35.101Z,18.71
2017-07-12T00:51:03.236Z,18.67
2017-07-12T00:51:31.462Z,18.68
2017-07-12T00:51:59.573Z,18.7
2017-07-12T00:52:27.601Z,18.68
2017-07-12T00:52:55.622Z,18.68
2017-07-12T00:53:23.665Z,18.63
2017-07-12T00:53:51.701Z,18.64
2017-07-12T00:54:19.849Z,18.74
2017-07-12T00:54:47.885Z,18.66
2017-07-12T00:55:15.918Z,18.67
2017-07-12T00:55:43.839Z,18.71
2017-07-12T00:56:11.857Z,18.67
2017-07-12T00:56:40.503Z,18.67
2017-07-12T00:57:08.649Z,18.76
2017-07-12T00:57:36.681Z,18.73
2017-07-12T00:58:04.814Z,18.71
2017-07-12T00:58:32.848Z,18.81
2017-07-12T00:59:00.901Z,18.68
2017-07-12T00:59:28.727Z,18.74
2017-07-12T00:59:56.899Z,18.79
2017-07-12T01:00:24.913Z,18.73
2017-07-12T01:00:52.855Z,18.78
2017-07-12T01:01:20.985Z,18.78
2017-07-12T01:01:49.121Z,18.73
2017-07-12T01:02:17.146Z,18.7
2017-07-12T01:02:45.195Z,18.73
2017-07-12T01:03:13.117Z,18.7
2017-07-12T01:03:41.229Z,18.71
2017-07-12T01:04:09.061Z,18.68
2017-07-12T01:04:37.189Z,18.67
2017-07-12T01:05:05.291Z,18.74
2017-07-12T01:05:33.317Z,18.79
2017-07-12T01:06:01.231Z,18.64
2017-07-12T01:06:29.262Z,18.73
2017-07-12T01:06:57.373Z,18.64
2017-07-12T01:07:25.526Z,18.66
2017-07-12T01:07:53.461Z,18.63
2017-07-12T01:08:21.485Z,18.68
2017-07-12T01:08:49.595Z,18.7
2017-07-12T01:09:17.528Z,18.63
2017-07-12T01:09:45.647Z,18.57
2017-07-12T01:10:13.800Z,18.58
2017-07-12T01:10:41.898Z,18.58
2017-07-12T01:11:10.028Z,18.58
2017-07-12T01:11:38.045Z,18.55
2017-07-12T01:12:06.058Z,18.6
2017-07-12T01:12:34.161Z,18.53
2017-07-12T01:13:02.268Z,18.55
2017-07-12T01:13:30.401Z,18.48
2017-07-12T01:13:58.531Z,18.46
2017-07-12T01:14:26.446Z,18.43
2017-07-12T01:14:54.451Z,18.41
2017-07-12T01:15:22.570Z,18.43
2017-07-12T01:15:50.574Z,18.39
2017-07-12T01:16:18.514Z,18.28
2017-07-12T01:16:46.662Z,18.41
2017-07-12T01:17:14.687Z,18.34
2017-07-12T01:17:42.712Z,18.34
2017-07-12T01:18:10.842Z,18.37
2017-07-12T01:18:38.774Z,18.36
2017-07-12T01:19:06.809Z,18.39
2017-07-12T01:19:34.832Z,18.23
2017-07-12T01:20:02.962Z,18.33
2017-07-12T01:20:31.115Z,18.23
2017-07-12T01:20:59.256Z,18.23
2017-07-12T01:21:27.289Z,18.28
2017-07-12T01:21:55.671Z,18.26
2017-07-12T01:22:23.365Z,18.26
2017-07-12T01:22:51.276Z,18.28
2017-07-12T01:23:19.110Z,18.27
2017-07-12T01:23:47.019Z,18.24
2017-07-12T01:24:15.066Z,18.24
2017-07-12T01:24:43.087Z,18.24
2017-07-12T01:25:11.109Z,18.23
2017-07-12T01:25:39.014Z,18.33
2017-07-12T01:26:06.958Z,18.26
2017-07-12T01:26:35.060Z,18.36
2017-07-12T01:27:03.162Z,18.3
2017-07-12T01:27:31.187Z,18.3
2017-07-12T01:27:59.206Z,18.34
2017-07-12T01:28:27.236Z,18.42
2017-07-12T01:28:55.151Z,18.36
2017-07-12T01:29:23.080Z,18.37
2017-07-12T01:29:51.116Z,18.3
2017-07-12T01:30:19.292Z,18.33
2017-07-12T01:30:47.434Z,18.36
2017-07-12T01:31:15.464Z,18.33
2017-07-12T01:31:43.726Z,18.36
2017-07-12T01:32:11.846Z,18.31
2017-07-12T01:32:39.869Z,18.39
2017-07-12T01:33:07.796Z,18.39
2017-07-12T01:33:35.957Z,18.23
2017-07-12T01:34:03.891Z,18.28
2017-07-12T01:34:32.006Z,18.21
2017-07-12T01:35:00.118Z,18.19
2017-07-12T01:35:27.947Z,18.23
2017-07-12T01:35:55.852Z,18.18
2017-07-12T01:36:23.832Z,18.26
2017-07-12T01:36:51.981Z,18.24
2017-07-12T01:37:19.792Z,18.24
2017-07-12T01:37:47.830Z,18.26
2017-07-12T01:38:15.748Z,18.21
2017-07-12T01:38:43.881Z,18.24
2017-07-12T01:39:11.992Z,18.15
2017-07-12T01:39:40.126Z,18.12
2017-07-12T01:40:08.135Z,18.13
2017-07-12T01:40:36.269Z,18.09
2017-07-12T01:41:04.307Z,18.13
2017-07-12T01:41:32.362Z,18.13
2017-07-12T01:42:00.387Z,18.12
2017-07-12T01:42:28.510Z,18.12
2017-07-12T01:42:56.477Z,18.11
2017-07-12T01:43:24.194Z,18.11
2017-07-12T01:43:52.323Z,18.12
2017-07-12T01:44:20.504Z,18.03
2017-07-12T01:44:48.632Z,18.05
2017-07-12T01:45:16.589Z,18.05
2017-07-12T01:45:44.699Z,18.02
2017-07-12T01:46:12.716Z,18.06
2017-07-12T01:46:40.734Z,17.94
2017-07-12T01:47:08.912Z,17.98
2017-07-12T01:47:37.023Z,17.94
2017-07-12T01:48:05.029Z,17.98
2017-07-12T01:48:33.030Z,17.9
2017-07-12T01:49:01.071Z,17.88
2017-07-12T01:49:29.103Z,17.86
2017-07-12T01:49:57.240Z,17.95
2017-07-12T01:50:25.282Z,17.8
2017-07-12T01:50:53.420Z,17.86
2017-07-12T01:51:21.248Z,17.76
2017-07-12T01:51:49.297Z,17.79
2017-07-12T01:52:17.206Z,17.78
2017-07-12T01:52:45.141Z,17.76
2017-07-12T01:53:13.165Z,17.76
2017-07-12T01:53:41.117Z,17.76
2017-07-12T01:54:09.142Z,17.69
2017-07-12T01:54:36.856Z,17.66
2017-07-12T01:55:04.974Z,17.69
2017-07-12T01:55:33.002Z,17.75
2017-07-12T01:56:01.130Z,17.76
2017-07-12T01:56:29.162Z,17.69
2017-07-12T01:56:57.391Z,17.72
2017-07-12T01:57:25.520Z,17.63
2017-07-12T01:57:53.359Z,17.71
2017-07-12T01:58:21.276Z,17.66
2017-07-12T01:58:49.397Z,17.6
2017-07-12T01:59:17.285Z,17.63
2017-07-12T01:59:45.295Z,17.59
2017-07-12T02:00:13.432Z,17.56
2017-07-12T02:00:41.454Z,17.56
2017-07-12T02:01:09.575Z,17.6
2017-07-12T02:01:37.710Z,17.59
2017-07-12T02:02:05.956Z,17.6
2017-07-12T02:02:33.955Z,17.68
2017-07-12T02:03:01.994Z,17.6
2017-07-12T02:03:30.158Z,17.59
2017-07-12T02:03:58.190Z,17.57
2017-07-12T02:04:26.124Z,17.57
2017-07-12T02:04:54.238Z,17.59
2017-07-12T02:05:22.148Z,17.6
2017-07-12T02:05:50.185Z,17.59
2017-07-12T02:06:18.208Z,17.63
2017-07-12T02:06:46.239Z,17.57
2017-07-12T02:07:14.372Z,17.6
2017-07-12T02:07:42.454Z,17.6
2017-07-12T02:08:10.545Z,17.57
2017-07-12T02:08:38.691Z,17.57
2017-07-12T02:09:06.609Z,17.63
2017-07-12T02:09:34.744Z,17.69
2017-07-12T02:10:02.703Z,17.6
2017-07-12T02:10:30.843Z,17.71
2017-07-12T02:10:58.862Z,17.68
2017-07-12T02:11:27.014Z,17.6
2017-07-12T02:11:55.157Z,17.63
2017-07-12T02:12:23.281Z,17.72
2017-07-12T02:12:51.245Z,17.6
2017-07-12T02:13:19.213Z,17.63
2017-07-12T02:13:47.346Z,17.53
2017-07-12T02:14:15.376Z,17.57
2017-07-12T02:14:43.494Z,17.54
2017-07-12T02:15:11.410Z,17.71
2017-07-12T02:15:39.330Z,17.63
2017-07-12T02:16:07.258Z,17.69
2017-07-12T02:16:35.195Z,17.6
2017-07-12T02:17:03.219Z,17.54
2017-07-12T02:17:31.250Z,17.6
2017-07-12T02:17:59.279Z,17.6
2017-07-12T02:18:27.760Z,17.54
2017-07-12T02:18:55.852Z,17.57
2017-07-12T02:19:23.762Z,17.46
2017-07-12T02:19:51.895Z,17.46
2017-07-12T02:20:20.018Z,17.46
2017-07-12T02:20:48.124Z,17.41
2017-07-12T02:21:16.166Z,17.34
2017-07-12T02:21:44.097Z,17.46
2017-07-12T02:22:12.038Z,17.39
2017-07-12T02:22:39.971Z,17.34
2017-07-12T02:23:07.878Z,17.39
2017-07-12T02:23:35.877Z,17.37
2017-07-12T02:24:03.795Z,17.32
2017-07-12T02:24:31.818Z,17.35
2017-07-12T02:24:59.932Z,17.38
2017-07-12T02:25:27.955Z,17.3
2017-07-12T02:25:55.892Z,17.27
2017-07-12T02:26:23.834Z,17.22
2017-07-12T02:26:52.927Z,17.22
2017-07-12T02:27:20.940Z,17.23
2017-07-12T02:27:48.960Z,17.22
2017-07-12T02:28:16.870Z,17.28
2017-07-12T02:28:44.793Z,17.19
2017-07-12T02:29:12.830Z,17.23
2017-07-12T02:29:40.969Z,17.22
2017-07-12T02:30:09.125Z,17.22
2017-07-12T02:30:37.251Z,17.24
2017-07-12T02:31:05.240Z,17.19
2017-07-12T02:31:33.276Z,17.17
2017-07-12T02:32:01.470Z,17.14
2017-07-12T02:32:29.487Z,17.13
2017-07-12T02:32:57.411Z,17.14
2017-07-12T02:33:25.545Z,17.2
2017-07-12T02:33:53.586Z,17.17
2017-07-12T02:34:21.729Z,17.17
2017-07-12T02:34:49.830Z,17.14
2017-07-12T02:35:17.761Z,17.16
2017-07-12T02:35:45.798Z,17.13
2017-07-12T02:36:13.729Z,17.07
2017-07-12T02:36:41.865Z,17.13
2017-07-12T02:37:09.875Z,17.02
2017-07-12T02:37:37.972Z,17.02
2017-07-12T02:38:06.075Z,17.01
2017-07-12T02:38:34.143Z,17.02
2017-07-12T02:39:02.291Z,17.05
2017-07-12T02:39:30.317Z,17.04
2017-07-12T02:39:58.363Z,17.07
2017-07-12T02:40:26.278Z,17.04
2017-07-12T02:40:54.315Z,17.01
2017-07-12T02:41:22.333Z,16.91
2017-07-12T02:41:50.267Z,16.91
2017-07-12T02:42:18.433Z,16.89
2017-07-12T02:42:46.256Z,16.92
2017-07-12T02:43:14.383Z,16.86
2017-07-12T02:43:42.506Z,16.83
2017-07-12T02:44:10.658Z,16.86
2017-07-12T02:44:38.591Z,16.82
2017-07-12T02:45:06.482Z,16.8
2017-07-12T02:45:34.400Z,16.82
2017-07-12T02:46:02.553Z,16.77
2017-07-12T02:46:30.585Z,16.77
2017-07-12T02:46:58.706Z,16.77
2017-07-12T02:47:26.397Z,16.86
2017-07-12T02:47:54.505Z,16.72
2017-07-12T02:48:22.325Z,16.79
2017-07-12T02:48:50.322Z,16.72
2017-07-12T02:49:18.441Z,16.73
2017-07-12T02:49:46.385Z,16.76
2017-07-12T02:50:14.398Z,16.65
2017-07-12T02:50:42.534Z,16.68
2017-07-12T02:51:10.559Z,16.69
2017-07-12T02:51:38.582Z,16.68
2017-07-12T02:52:06.712Z,16.59
2017-07-12T02:52:34.822Z,16.61
2017-07-12T02:53:02.730Z,16.62
2017-07-12T02:53:30.859Z,16.66
2017-07-12T02:53:58.974Z,16.61
2017-07-12T02:54:26.903Z,16.64
2017-07-12T02:54:55.032Z,16.59
2017-07-12T02:55:23.172Z,16.62
2017-07-12T02:55:51.307Z,16.57
2017-07-12T02:56:19.453Z,16.59
2017-07-12T02:56:47.614Z,16.62
2017-07-12T02:57:15.735Z,16.57
2017-07-12T02:57:43.858Z,16.57
2017-07-12T02:58:11.969Z,16.68
2017-07-12T02:58:40.003Z,16.68
2017-07-12T02:59:08.150Z,16.68
2017-07-12T02:59:36.155Z,16.69
2017-07-12T03:00:04.260Z,16.61
2017-07-12T03:00:32.384Z,16.59
2017-07-12T03:01:00.424Z,16.65
2017-07-12T03:01:28.435Z,16.62
2017-07-12T03:01:56.175Z,16.65
2017-07-12T03:02:24.518Z,16.59
2017-07-12T03:02:52.425Z,16.65
2017-07-12T03:03:20.333Z,16.58
2017-07-12T03:03:48.450Z,16.61
2017-07-12T03:04:16.463Z,16.59
2017-07-12T03:04:44.367Z,16.59
2017-07-12T03:05:12.091Z,16.55
2017-07-12T03:05:39.935Z,16.57
2017-07-12T03:06:07.683Z,16.49
2017-07-12T03:06:35.509Z,16.46
2017-07-12T03:07:03.328Z,16.47
2017-07-12T03:07:31.168Z,16.36
2017-07-12T03:07:59.096Z,16.34
2017-07-12T03:08:27.116Z,16.4
2017-07-12T03:08:55.262Z,16.32
2017-07-12T03:09:23.304Z,16.4
2017-07-12T03:09:51.352Z,16.32
2017-07-12T03:10:19.274Z,16.28
2017-07-12T03:10:47.390Z,16.26
2017-07-12T03:11:15.426Z,16.34
2017-07-12T03:11:43.366Z,16.29
2017-07-12T03:12:11.402Z,16.32
2017-07-12T03:12:39.223Z,16.39
2017-07-12T03:13:07.250Z,16.25
2017-07-12T03:13:35.300Z,16.29
2017-07-12T03:14:03.331Z,16.28
2017-07-12T03:14:31.450Z,16.32
2017-07-12T03:14:59.375Z,16.32
2017-07-12T03:15:27.510Z,16.31
2017-07-12T03:15:55.436Z,16.31
2017-07-12T03:16:23.362Z,16.32
2017-07-12T03:16:51.284Z,16.31
2017-07-12T03:17:19.424Z,16.25
2017-07-12T03:17:47.420Z,16.32
2017-07-12T03:18:15.550Z,16.32
2017-07-12T03:18:43.499Z,16.32
2017-07-12T03:19:11.437Z,16.28
2017-07-12T03:19:39.552Z,16.28
2017-07-12T03:20:07.560Z,16.36
2017-07-12T03:20:35.485Z,16.31
2017-07-12T03:21:03.491Z,16.31
2017-07-12T03:21:31.593Z,16.32
2017-07-12T03:21:59.596Z,16.28
2017-07-12T03:22:27.625Z,16.36
2017-07-12T03:22:55.482Z,16.32
2017-07-12T03:23:23.283Z,16.29
2017-07-12T03:23:51.401Z,16.32
2017-07-12T03:24:19.328Z,16.29
2017-07-12T03:24:47.477Z,16.31
2017-07-12T03:25:15.588Z,16.29
2017-07-12T03:25:43.698Z,16.29
2017-07-12T03:26:11.663Z,16.34
2017-07-12T03:26:39.787Z,16.31
2017-07-12T03:27:07.821Z,16.29
2017-07-12T03:27:36.139Z,16.32
2017-07-12T03:28:04.054Z,16.26
2017-07-12T03:28:32.063Z,16.34
2017-07-12T03:28:59.959Z,16.28
2017-07-12T03:29:28.000Z,16.28
2017-07-12T03:29:55.928Z,16.31
2017-07-12T03:30:23.849Z,16.26
2017-07-12T03:30:51.865Z,16.31
2017-07-12T03:31:19.976Z,16.31
2017-07-12T03:31:48.044Z,16.24
2017-07-12T03:32:15.967Z,16.22
2017-07-12T03:32:44.273Z,16.32
2017-07-12T03:33:12.300Z,16.24
2017-07-12T03:33:40.416Z,16.28
2017-07-12T03:34:08.553Z,16.26
2017-07-12T03:34:36.676Z,16.26
2017-07-12T03:35:04.594Z,16.25
2017-07-12T03:35:32.705Z,16.28
2017-07-12T03:36:00.820Z,16.25
2017-07-12T03:36:28.933Z,16.25
2017-07-12T03:36:57.084Z,16.21
2017-07-12T03:37:24.996Z,16.18
2017-07-12T03:37:53.020Z,16.21
2017-07-12T03:38:21.049Z,16.17
2017-07-12T03:38:49.082Z,16.16
2017-07-12T03:39:17.092Z,16.16
2017-07-12T03:39:45.219Z,16.09
2017-07-12T03:40:13.135Z,16.12
2017-07-12T03:40:41.066Z,16.12
2017-07-12T03:41:09.215Z,16.09
2017-07-12T03:41:37.124Z,16.09
2017-07-12T03:42:05.068Z,16.05
2017-07-12T03:42:33.305Z,16.09
2017-07-12T03:43:01.219Z,16.05
2017-07-12T03:43:29.262Z,16.03
2017-07-12T03:43:57.400Z,16.03
2017-07-12T03:44:25.540Z,16.05
2017-07-12T03:44:53.573Z,16.08
2017-07-12T03:45:21.610Z,16.02
2017-07-12T03:45:49.522Z,15.98
2017-07-12T03:46:17.271Z,16.03
2017-07-12T03:46:45.087Z,15.94
2017-07-12T03:47:13.116Z,16.03
2017-07-12T03:47:41.252Z,15.91
2017-07-12T03:48:09.381Z,15.94
2017-07-12T03:48:37.534Z,16
2017-07-12T03:49:05.451Z,15.96
2017-07-12T03:49:33.381Z,15.96
2017-07-12T03:50:01.277Z,15.98
2017-07-12T03:50:29.421Z,15.96
2017-07-12T03:50:57.557Z,15.92
2017-07-12T03:51:25.600Z,15.91
2017-07-12T03:51:53.602Z,15.94
2017-07-12T03:52:21.706Z,15.92
2017-07-12T03:52:49.915Z,15.94
2017-07-12T03:53:18.034Z,15.91
2017-07-12T03:53:46.076Z,15.85
2017-07-12T03:54:14.042Z,15.99
2017-07-12T03:54:42.153Z,15.98
2017-07-12T03:55:10.135Z,15.99
2017-07-12T03:55:38.169Z,16.06
2017-07-12T03:56:06.271Z,16.02
2017-07-12T03:56:34.316Z,16.02
2017-07-12T03:57:02.423Z,16.03
2017-07-12T03:57:30.526Z,15.99
2017-07-12T03:57:58.436Z,16.03
2017-07-12T03:58:26.444Z,16.03
2017-07-12T03:58:54.383Z,16
2017-07-12T03:59:22.315Z,15.98
2017-07-12T03:59:50.321Z,16.06
2017-07-12T04:00:18.359Z,16.02
2017-07-12T04:00:46.393Z,16.03
2017-07-12T04:01:14.513Z,15.99
2017-07-12T04:01:42.637Z,15.99
2017-07-12T04:02:10.677Z,16.05
2017-07-12T04:02:39.044Z,15.94
2017-07-12T04:03:07.106Z,16.05
2017-07-12T04:03:35.150Z,16.08
2017-07-12T04:04:03.187Z,15.99
2017-07-12T04:04:31.207Z,16
2017-07-12T04:04:59.129Z,16.02
2017-07-12T04:05:27.258Z,15.96
2017-07-12T04:05:55.244Z,15.96
2017-07-12T04:06:23.296Z,15.96
2017-07-12T04:06:51.313Z,15.9
2017-07-12T04:07:19.326Z,15.92
2017-07-12T04:07:47.453Z,15.81
2017-07-12T04:08:15.576Z,15.91
2017-07-12T04:08:43.697Z,15.85
2017-07-12T04:09:11.747Z,15.92
2017-07-12T04:09:39.642Z,15.94
2017-07-12T04:10:07.584Z,15.92
2017-07-12T04:10:35.622Z,15.91
2017-07-12T04:11:03.651Z,15.85
2017-07-12T04:11:31.701Z,15.88
2017-07-12T04:11:59.720Z,15.81
2017-07-12T04:12:27.750Z,15.9
2017-07-12T04:12:55.984Z,15.9
2017-07-12T04:13:23.996Z,15.87
2017-07-12T04:13:52.041Z,15.81
2017-07-12T04:14:20.092Z,15.87
2017-07-12T04:14:48.222Z,15.98
2017-07-12T04:15:16.339Z,15.9
2017-07-12T04:15:44.287Z,15.9
2017-07-12T04:16:12.413Z,15.9
2017-07-12T04:16:40.531Z,15.87
2017-07-12T04:17:08.545Z,15.9
2017-07-12T04:17:36.661Z,15.87
2017-07-12T04:18:04.682Z,15.91
2017-07-12T04:18:32.799Z,15.87
2017-07-12T04:19:00.809Z,15.9
2017-07-12T04:19:28.819Z,15.96
2017-07-12T04:19:56.877Z,15.9
2017-07-12T04:20:24.921Z,15.88
2017-07-12T04:20:52.964Z,15.98
2017-07-12T04:21:20.989Z,15.9
2017-07-12T04:21:48.990Z,15.87
2017-07-12T04:22:16.989Z,15.91
2017-07-12T04:22:44.998Z,15.9
2017-07-12T04:23:12.834Z,15.9
2017-07-12T04:23:40.627Z,15.91
2017-07-12T04:24:08.581Z,15.9
2017-07-12T04:24:36.616Z,15.9
2017-07-12T04:25:04.741Z,15.85
2017-07-12T04:25:32.874Z,15.92
2017-07-12T04:26:00.905Z,15.78
2017-07-12T04:26:29.037Z,15.88
2017-07-12T04:26:57.066Z,15.8
2017-07-12T04:27:25.084Z,15.84
2017-07-12T04:27:53.301Z,15.84
2017-07-12T04:28:21.327Z,15.83
2017-07-12T04:28:49.274Z,15.85
2017-07-12T04:29:17.102Z,15.81
2017-07-12T04:29:45.014Z,15.84
2017-07-12T04:30:13.137Z,15.81
2017-07-12T04:30:41.150Z,15.9
2017-07-12T04:31:09.075Z,15.85
2017-07-12T04:31:37.183Z,15.85
2017-07-12T04:32:05.308Z,15.87
2017-07-12T04:32:33.428Z,15.81
2017-07-12T04:33:01.641Z,15.85
2017-07-12T04:33:29.741Z,15.85
2017-07-12T04:33:57.885Z,15.75
2017-07-12T04:34:25.848Z,15.85
2017-07-12T04:34:53.996Z,15.83
2017-07-12T04:35:21.908Z,15.83
2017-07-12T04:35:50.018Z,15.75
2017-07-12T04:36:18.023Z,15.76
2017-07-12T04:36:45.848Z,15.73
2017-07-12T04:37:13.980Z,15.85
2017-07-12T04:37:41.869Z,15.76
2017-07-12T04:38:09.899Z,15.78
2017-07-12T04:38:38.039Z,15.83
2017-07-12T04:39:06.082Z,15.85
2017-07-12T04:39:34.221Z,15.83
2017-07-12T04:40:02.239Z,15.75
2017-07-12T04:40:30.280Z,15.76
2017-07-12T04:40:58.215Z,15.75
2017-07-12T04:41:26.355Z,15.72
2017-07-12T04:41:54.496Z,15.78
2017-07-12T04:42:22.538Z,15.73
2017-07-12T04:42:50.638Z,15.72
2017-07-12T04:43:18.777Z,15.69
2017-07-12T04:43:46.886Z,15.67
2017-07-12T04:44:15.026Z,15.72
2017-07-12T04:44:43.071Z,15.69
2017-07-12T04:45:11.123Z,15.73
2017-07-12T04:45:39.229Z,15.72
2017-07-12T04:46:07.274Z,15.7
2017-07-12T04:46:35.298Z,15.72
2017-07-12T04:47:03.312Z,15.63
2017-07-12T04:47:31.427Z,15.72
2017-07-12T04:47:59.462Z,15.65
2017-07-12T04:48:27.576Z,15.62
2017-07-12T04:48:55.597Z,15.57
2017-07-12T04:49:23.652Z,15.67
2017-07-12T04:49:51.691Z,15.66
2017-07-12T04:50:19.840Z,15.62
2017-07-12T04:50:47.839Z,15.62
2017-07-12T04:51:15.727Z,15.55
2017-07-12T04:51:43.851Z,15.55
2017-07-12T04:52:11.886Z,15.52
2017-07-12T04:52:39.878Z,15.57
2017-07-12T04:53:07.906Z,15.54
2017-07-12T04:53:35.908Z,15.51
2017-07-12T04:54:03.848Z,15.54
2017-07-12T04:54:31.892Z,15.54
2017-07-12T04:54:59.924Z,15.54
2017-07-12T04:55:28.077Z,15.5
2017-07-12T04:55:56.189Z,15.52
2017-07-12T04:56:24.231Z,15.5
2017-07-12T04:56:52.374Z,15.54
2017-07-12T04:57:20.313Z,15.54
2017-07-12T04:57:48.511Z,15.51
2017-07-12T04:58:16.630Z,15.54
2017-07-12T04:58:44.661Z,15.57
2017-07-12T04:59:12.377Z,15.54
2017-07-12T04:59:40.502Z,15.55
2017-07-12T05:00:08.641Z,15.55
2017-07-12T05:00:36.778Z,15.52
2017-07-12T05:01:04.866Z,15.5
2017-07-12T05:01:32.994Z,15.55
2017-07-12T05:02:01.029Z,15.5
2017-07-12T05:02:29.030Z,15.5
2017-07-12T05:02:57.493Z,15.45
2017-07-12T05:03:25.514Z,15.48
2017-07-12T05:03:53.670Z,15.51
2017-07-12T05:04:21.704Z,15.51
2017-07-12T05:04:49.808Z,15.44
2017-07-12T05:05:17.945Z,15.51
2017-07-12T05:05:46.086Z,15.5
2017-07-12T05:06:14.229Z,15.5
2017-07-12T05:06:42.157Z,15.52
2017-07-12T05:07:10.337Z,15.48
2017-07-12T05:07:38.198Z,15.48
2017-07-12T05:08:06.392Z,15.35
2017-07-12T05:08:34.412Z,15.45
2017-07-12T05:09:02.420Z,15.45
2017-07-12T05:09:30.474Z,15.43
2017-07-12T05:09:58.617Z,15.47
2017-07-12T05:10:26.729Z,15.39
2017-07-12T05:10:54.837Z,15.36
2017-07-12T05:11:22.885Z,15.36
2017-07-12T05:11:50.906Z,15.44
2017-07-12T05:12:18.900Z,15.36
2017-07-12T05:12:47.033Z,15.36
2017-07-12T05:13:15.346Z,15.41
2017-07-12T05:13:43.255Z,15.45
2017-07-12T05:14:11.273Z,15.41
2017-07-12T05:14:39.171Z,15.41
2017-07-12T05:15:07.083Z,15.5
2017-07-12T05:15:35.126Z,15.43
2017-07-12T05:16:03.062Z,15.41
2017-07-12T05:16:30.984Z,15.41
2017-07-12T05:16:58.994Z,15.39
2017-07-12T05:17:27.017Z,15.35
2017-07-12T05:17:55.166Z,15.37
2017-07-12T05:18:23.276Z,15.3
2017-07-12T05:18:51.300Z,15.39
2017-07-12T05:19:19.326Z,15.33
2017-07-12T05:19:47.275Z,15.3
2017-07-12T05:20:15.302Z,15.27
2017-07-12T05:20:43.319Z,15.37
2017-07-12T05:21:11.436Z,15.32
2017-07-12T05:21:39.374Z,15.3
2017-07-12T05:22:07.396Z,15.33
2017-07-12T05:22:35.316Z,15.32
2017-07-12T05:23:03.137Z,15.3
2017-07-12T05:23:30.960Z,15.33
2017-07-12T05:23:58.978Z,15.35
2017-07-12T05:24:26.886Z,15.32
2017-07-12T05:24:55.002Z,15.33
2017-07-12T05:25:23.123Z,15.33
2017-07-12T05:25:51.255Z,15.25
2017-07-12T05:26:19.293Z,15.19
2017-07-12T05:26:47.292Z,15.25
2017-07-12T05:27:15.406Z,15.19
2017-07-12T05:27:43.432Z,15.19
2017-07-12T05:28:11.736Z,15.19
2017-07-12T05:28:39.848Z,15.19
2017-07-12T05:29:07.973Z,15.22
2017-07-12T05:29:36.104Z,15.18
2017-07-12T05:30:04.208Z,15.19
2017-07-12T05:30:32.137Z,15.23
2017-07-12T05:31:00.167Z,15.18
2017-07-12T05:31:28.188Z,15.23
2017-07-12T05:31:56.239Z,15.19
2017-07-12T05:32:24.376Z,15.14
2017-07-12T05:32:52.220Z,15.11
2017-07-12T05:33:20.230Z,15.11
2017-07-12T05:33:48.169Z,15.12
2017-07-12T05:34:16.309Z,15.05
2017-07-12T05:34:44.375Z,14.97
2017-07-12T05:35:12.392Z,15
2017-07-12T05:35:40.536Z,14.99
2017-07-12T05:36:08.574Z,14.97
2017-07-12T05:36:36.603Z,15.02
2017-07-12T05:37:04.730Z,15.02
2017-07-12T05:37:32.851Z,14.99
2017-07-12T05:38:00.875Z,14.89
2017-07-12T05:38:29.002Z,14.92
2017-07-12T05:38:57.056Z,14.9
2017-07-12T05:39:24.968Z,14.94
2017-07-12T05:39:52.898Z,14.96
2017-07-12T05:40:21.039Z,14.94
2017-07-12T05:40:48.939Z,15.02
2017-07-12T05:41:16.971Z,14.99
2017-07-12T05:41:44.987Z,14.97
2017-07-12T05:42:13.130Z,15.04
2017-07-12T05:42:41.186Z,15.07
2017-07-12T05:43:09.507Z,15.11
2017-07-12T05:43:37.422Z,15.05
2017-07-12T05:44:05.462Z,15.05
2017-07-12T05:44:33.373Z,15.1
2017-07-12T05:45:01.414Z,14.99
2017-07-12T05:45:29.527Z,14.99
2017-07-12T05:45:57.671Z,15.05
2017-07-12T05:46:25.685Z,15.02
2017-07-12T05:46:53.708Z,15.04
2017-07-12T05:47:21.828Z,15.1
2017-07-12T05:47:49.850Z,15.1
2017-07-12T05:48:17.893Z,15.04
2017-07-12T05:48:45.993Z,15.04
2017-07-12T05:49:13.943Z,15.07
2017-07-12T05:49:41.978Z,15
2017-07-12T05:50:10.114Z,15.04
2017-07-12T05:50:38.037Z,15.05
2017-07-12T05:51:06.076Z,14.94
2017-07-12T05:51:34.084Z,15.02
2017-07-12T05:52:01.983Z,14.99
2017-07-12T05:52:29.930Z,15.02
2017-07-12T05:52:57.965Z,15.02
2017-07-12T05:53:25.988Z,15.07
2017-07-12T05:53:54.012Z,15.04
2017-07-12T05:54:22.031Z,15.07
2017-07-12T05:54:49.944Z,15
2017-07-12T05:55:18.095Z,15.11
2017-07-12T05:55:46.120Z,15
2017-07-12T05:56:14.161Z,15.1
2017-07-12T05:56:42.180Z,15.04
2017-07-12T05:57:10.111Z,15.08
2017-07-12T05:57:38.249Z,15.07
2017-07-12T05:58:06.362Z,15.04
2017-07-12T05:58:34.677Z,14.96
2017-07-12T05:59:02.694Z,15.07
2017-07-12T05:59:30.693Z,15.02
2017-07-12T05:59:58.821Z,14.96
2017-07-12T06:00:26.855Z,14.99
2017-07-12T06:00:54.888Z,14.97
2017-07-12T06:01:23.045Z,15.05
2017-07-12T06:01:51.184Z,15.05
2017-07-12T06:02:19.216Z,14.96